createdAt,value
2018-07-23T00:01:53.411Z,20.00
2018-07-23T00:05:47.386Z,20.00
2018-07-23T00:09:41.361Z,20.00
2018-07-23T00:13:35.334Z,19.90
2018-07-23T00:17:29.246Z,19.80
2018-07-23T00:21:23.103Z,19.70
2018-07-23T00:25:17.166Z,19.70
2018-07-23T00:29:10.532Z,19.60
2018-07-23T00:33:04.522Z,19.60
2018-07-23T00:36:58.467Z,19.50
2018-07-23T00:40:52.593Z,19.60
2018-07-23T00:44:46.524Z,19.60
2018-07-23T00:48:40.427Z,19.50
2018-07-23T00:52:34.914Z,19.40
2018-07-23T00:56:28.803Z,19.40
2018-07-23T01:00:22.739Z,19.30
2018-07-23T01:04:16.829Z,19.30
2018-07-23T01:08:10.907Z,19.30
2018-07-23T01:12:04.882Z,19.20
2018-07-23T01:15:59.417Z,19.10
2018-07-23T01:19:54.662Z,19.00
2018-07-23T01:23:48.754Z,19.10
2018-07-23T01:27:42.786Z,19.00
2018-07-23T01:31:36.705Z,19.00
2018-07-23T01:35:30.774Z,19.00
2018-07-23T01:39:24.721Z,19.00
2018-07-23T01:43:18.610Z,19.00
2018-07-23T01:47:12.555Z,19.10
2018-07-23T01:51:06.654Z,19.10
2018-07-23T01:55:00.573Z,19.00
2018-07-23T01:58:54.562Z,19.00
2018-07-23T02:02:48.515Z,19.00
2018-07-23T02:06:42.459Z,18.80
2018-07-23T02:10:36.516Z,18.70
2018-07-23T02:14:30.611Z,18.60
2018-07-23T02:18:24.637Z,18.50
2018-07-23T02:22:20.657Z,18.50
2018-07-23T02:26:14.704Z,18.50
2018-07-23T02:30:08.755Z,18.50
2018-07-23T02:34:02.813Z,18.40
2018-07-23T02:37:56.772Z,18.40
2018-07-23T02:41:50.962Z,18.30
2018-07-23T02:45:44.898Z,18.30
2018-07-23T02:49:39.306Z,18.30
2018-07-23T02:53:33.360Z,18.30
2018-07-23T02:57:27.350Z,18.30
2018-07-23T03:01:21.369Z,18.30
2018-07-23T03:05:15.331Z,18.30
2018-07-23T03:09:09.345Z,18.30
2018-07-23T03:13:03.282Z,18.30
2018-07-23T03:16:57.278Z,18.30
2018-07-23T03:20:51.286Z,18.30
2018-07-23T03:24:45.639Z,18.30
2018-07-23T03:28:39.641Z,18.20
2018-07-23T03:32:33.642Z,18.20
2018-07-23T03:36:27.631Z,18.20
2018-07-23T03:40:22.007Z,18.20
2018-07-23T03:44:16.278Z,18.20
2018-07-23T03:48:15.023Z,18.10
2018-07-23T03:52:09.542Z,18.10
2018-07-23T03:56:07.228Z,18.10
2018-07-23T04:00:01.782Z,18.00
2018-07-23T04:03:56.902Z,18.00
2018-07-23T04:07:51.752Z,18.00
2018-07-23T04:11:46.607Z,18.10
2018-07-23T04:15:41.019Z,18.20
2018-07-23T04:19:35.996Z,18.30
2018-07-23T04:23:32.501Z,18.30
2018-07-23T04:31:24.035Z,18.30
2018-07-23T04:35:18.467Z,18.40
2018-07-23T04:39:12.404Z,18.60
2018-07-23T04:43:06.483Z,18.60
2018-07-23T04:47:00.987Z,18.70
2018-07-23T04:50:55.147Z,19.00
2018-07-23T04:54:49.662Z,20.20
2018-07-23T04:58:43.732Z,22.20
2018-07-23T05:02:37.960Z,24.10
2018-07-23T05:06:32.252Z,25.40
2018-07-23T05:10:26.531Z,25.80
2018-07-23T05:14:21.013Z,24.80
2018-07-23T05:18:15.227Z,23.60
2018-07-23T05:26:04.329Z,22.00
2018-07-23T05:33:52.622Z,21.60
2018-07-23T05:37:46.723Z,21.60
2018-07-23T05:41:40.999Z,21.50
2018-07-23T05:45:35.202Z,21.50
2018-07-23T05:49:29.297Z,21.50
2018-07-23T05:53:23.610Z,21.60
2018-07-23T05:57:17.689Z,21.60
2018-07-23T06:01:11.829Z,21.70
2018-07-23T06:05:06.108Z,21.80
2018-07-23T06:09:00.125Z,21.80
2018-07-23T06:12:54.241Z,21.80
2018-07-23T06:16:48.400Z,21.80
2018-07-23T06:20:42.592Z,21.80
2018-07-23T06:24:38.263Z,21.80
2018-07-23T06:28:32.337Z,21.80
2018-07-23T06:32:29.498Z,21.80
2018-07-23T06:36:24.854Z,21.90
2018-07-23T06:40:19.169Z,22.00
2018-07-23T06:44:13.543Z,22.10
2018-07-23T06:48:08.506Z,22.10
2018-07-23T06:52:05.105Z,22.20
2018-07-23T06:56:00.810Z,22.30
2018-07-23T06:59:55.229Z,22.40
2018-07-23T07:03:54.067Z,22.50
2018-07-23T07:07:48.638Z,22.60
2018-07-23T07:11:43.016Z,22.70
2018-07-23T07:15:37.103Z,22.70
2018-07-23T07:19:32.602Z,22.80
2018-07-23T07:27:21.990Z,23.00
2018-07-23T07:31:17.460Z,23.00
2018-07-23T07:35:11.514Z,23.10
2018-07-23T07:39:08.673Z,23.10
2018-07-23T07:43:02.899Z,23.20
2018-07-23T07:46:57.680Z,23.30
2018-07-23T07:50:51.996Z,23.40
2018-07-23T07:54:45.986Z,23.50
2018-07-23T07:58:39.958Z,23.60
2018-07-23T08:02:34.733Z,23.60
2018-07-23T08:06:28.477Z,23.50
2018-07-23T08:10:22.827Z,23.60
2018-07-23T08:14:16.968Z,23.60
2018-07-23T08:18:11.234Z,23.70
2018-07-23T08:22:05.840Z,23.80
2018-07-23T08:26:00.252Z,24.10
2018-07-23T08:29:54.240Z,24.30
2018-07-23T08:33:49.182Z,24.50
2018-07-23T08:37:43.330Z,24.60
2018-07-23T08:41:37.737Z,24.60
2018-07-23T08:45:31.763Z,24.80
2018-07-23T08:49:25.722Z,25.10
2018-07-23T08:53:19.725Z,25.20
2018-07-23T08:57:13.787Z,25.30
2018-07-23T09:01:07.841Z,25.50
2018-07-23T09:05:01.758Z,25.50
2018-07-23T09:08:55.749Z,25.30
2018-07-23T09:12:49.807Z,25.20
2018-07-23T09:20:37.435Z,24.90
2018-07-23T09:24:31.411Z,25.10
2018-07-23T09:28:25.477Z,25.40
2018-07-23T09:32:19.370Z,25.90
2018-07-23T09:40:07.763Z,26.60
2018-07-23T09:44:01.704Z,27.30
2018-07-23T09:47:55.615Z,28.00
2018-07-23T09:51:49.544Z,28.40
2018-07-23T09:55:43.414Z,28.60
2018-07-23T10:03:31.257Z,28.20
2018-07-23T10:07:25.083Z,28.20
2018-07-23T10:11:19.041Z,28.30
2018-07-23T10:15:13.068Z,28.20
2018-07-23T10:19:07.076Z,27.90
2018-07-23T10:23:01.030Z,27.60
2018-07-23T10:26:55.046Z,27.60
2018-07-23T10:30:49.003Z,27.70
2018-07-23T10:34:42.931Z,27.60
2018-07-23T10:38:37.009Z,27.60
2018-07-23T10:42:31.002Z,27.60
2018-07-23T10:46:25.613Z,27.60
2018-07-23T10:50:21.440Z,27.70
2018-07-23T10:54:15.459Z,27.80
2018-07-23T10:58:09.769Z,28.00
2018-07-23T11:02:03.734Z,27.90
2018-07-23T11:05:57.766Z,27.70
2018-07-23T11:09:51.964Z,27.50
2018-07-23T11:13:45.987Z,27.50
2018-07-23T11:17:39.887Z,27.70
2018-07-23T11:21:33.786Z,27.70
2018-07-23T11:25:40.504Z,27.70
2018-07-23T11:29:22.114Z,27.70
2018-07-23T11:33:16.302Z,27.80
2018-07-23T11:37:10.372Z,27.90
2018-07-23T11:41:04.575Z,27.90
2018-07-23T11:44:58.498Z,28.00
2018-07-23T11:48:52.530Z,27.90
2018-07-23T11:52:46.588Z,27.70
2018-07-23T11:56:40.597Z,27.80
2018-07-23T12:00:34.599Z,27.70
2018-07-23T12:04:28.610Z,27.80
2018-07-23T12:08:22.510Z,28.00
2018-07-23T12:12:16.498Z,28.30
2018-07-23T12:16:11.592Z,28.60
2018-07-23T12:20:05.778Z,28.90
2018-07-23T12:23:59.771Z,28.60
2018-07-23T12:27:53.666Z,28.30
2018-07-23T12:31:47.704Z,28.10
2018-07-23T12:35:41.722Z,28.30
2018-07-23T12:39:35.997Z,28.50
2018-07-23T12:43:30.234Z,28.60
2018-07-23T12:47:24.305Z,28.90
2018-07-23T12:51:18.306Z,29.00
2018-07-23T12:55:12.337Z,29.10
2018-07-23T12:59:06.235Z,29.10
2018-07-23T13:03:00.361Z,29.10
2018-07-23T13:06:58.577Z,28.90
2018-07-23T13:11:00.326Z,28.80
2018-07-23T13:14:54.425Z,28.70
2018-07-23T13:18:48.389Z,28.80
2018-07-23T13:22:42.343Z,28.80
2018-07-23T13:26:36.410Z,29.00
2018-07-23T13:30:30.431Z,29.10
2018-07-23T13:34:24.600Z,29.10
2018-07-23T13:38:18.724Z,29.20
2018-07-23T13:42:12.679Z,29.40
2018-07-23T13:46:06.727Z,29.50
2018-07-23T13:53:55.134Z,29.60
2018-07-23T13:57:49.075Z,29.70
2018-07-23T14:01:43.154Z,29.70
2018-07-23T14:05:37.108Z,29.60
2018-07-23T14:09:31.083Z,29.50
2018-07-23T14:13:26.303Z,29.40
2018-07-23T14:17:20.632Z,29.30
2018-07-23T14:21:14.611Z,29.20
2018-07-23T14:25:08.662Z,29.30
2018-07-23T14:29:02.591Z,29.40
2018-07-23T14:32:56.638Z,29.40
2018-07-23T14:36:50.952Z,29.60
2018-07-23T14:40:44.978Z,29.70
2018-07-23T14:44:38.968Z,29.80
2018-07-23T14:48:33.012Z,29.90
2018-07-23T14:52:27.422Z,30.00
2018-07-23T14:56:22.603Z,30.20
2018-07-23T15:00:16.678Z,30.40
2018-07-23T15:04:10.656Z,30.40
2018-07-23T15:08:04.831Z,30.40
2018-07-23T15:11:58.873Z,30.40
2018-07-23T15:15:52.994Z,30.50
2018-07-23T15:19:47.848Z,30.20
2018-07-23T15:27:36.270Z,30.10
2018-07-23T15:31:30.296Z,30.30
2018-07-23T15:35:24.281Z,30.50
2018-07-23T15:39:18.235Z,30.40
2018-07-23T15:43:12.283Z,30.50
2018-07-23T15:47:06.473Z,30.60
2018-07-23T15:51:00.618Z,30.60
2018-07-23T15:54:54.751Z,30.50
2018-07-23T16:02:42.500Z,30.70
2018-07-23T16:06:36.475Z,30.70
2018-07-23T16:10:30.403Z,30.60
2018-07-23T16:14:24.558Z,30.50
2018-07-23T16:18:18.558Z,30.50
2018-07-23T16:22:12.707Z,30.50
2018-07-23T16:26:06.786Z,30.40
2018-07-23T16:30:00.823Z,30.40
2018-07-23T16:33:54.861Z,30.50
2018-07-23T16:37:48.894Z,30.40
2018-07-23T16:45:36.855Z,30.30
2018-07-23T16:49:30.797Z,30.40
2018-07-23T16:53:24.819Z,30.50
2018-07-23T16:57:18.777Z,30.60
2018-07-23T17:01:12.775Z,30.60
2018-07-23T17:05:06.880Z,30.40
2018-07-23T17:09:00.903Z,30.30
2018-07-23T17:12:54.934Z,30.20
2018-07-23T17:16:49.042Z,30.10
2018-07-23T17:20:43.200Z,30.00
2018-07-23T17:24:37.194Z,29.90
2018-07-23T17:28:30.599Z,29.70
2018-07-23T17:32:24.557Z,29.80
2018-07-23T17:36:18.498Z,30.00
2018-07-23T17:40:12.629Z,29.90
2018-07-23T17:44:06.637Z,30.00
2018-07-23T17:48:00.754Z,30.30
2018-07-23T17:51:55.070Z,30.50
2018-07-23T17:55:49.037Z,30.50
2018-07-23T17:59:43.616Z,30.40
2018-07-23T18:03:37.510Z,30.40
2018-07-23T18:07:31.566Z,30.30
2018-07-23T18:11:25.665Z,30.20
2018-07-23T18:15:19.724Z,30.00
2018-07-23T18:19:13.776Z,29.80
2018-07-23T18:23:07.807Z,29.60
2018-07-23T18:27:02.109Z,29.40
2018-07-23T18:30:56.166Z,29.40
2018-07-23T18:34:50.444Z,29.20
2018-07-23T18:38:44.522Z,29.20
2018-07-23T18:42:38.593Z,29.00
2018-07-23T18:46:32.725Z,28.90
2018-07-23T18:50:26.762Z,28.80
2018-07-23T18:54:22.007Z,28.60
2018-07-23T18:58:15.979Z,28.40
2018-07-23T19:02:11.176Z,28.30
2018-07-23T19:06:05.154Z,28.10
2018-07-23T19:09:59.133Z,27.80
2018-07-23T19:13:53.091Z,27.60
2018-07-23T19:17:47.030Z,27.40
2018-07-23T19:21:40.944Z,27.30
2018-07-23T19:25:34.987Z,27.10
2018-07-23T19:29:30.130Z,27.00
2018-07-23T19:33:24.135Z,26.80
2018-07-23T19:37:18.110Z,26.80
2018-07-23T19:41:12.125Z,26.70
2018-07-23T19:45:06.198Z,26.60
2018-07-23T19:49:00.230Z,26.60
2018-07-23T19:52:54.190Z,26.60
2018-07-23T19:56:48.113Z,26.50
2018-07-23T20:00:42.174Z,26.30
2018-07-23T20:04:36.161Z,26.20
2018-07-23T20:08:30.490Z,26.10
2018-07-23T20:12:24.736Z,25.90
2018-07-23T20:16:18.832Z,25.80
2018-07-23T20:20:12.796Z,25.70
2018-07-23T20:24:06.763Z,25.50
2018-07-23T20:28:00.790Z,25.40
2018-07-23T20:31:54.892Z,25.40
2018-07-23T20:35:48.849Z,25.20
2018-07-23T20:39:42.862Z,25.20
2018-07-23T20:43:37.126Z,25.10
2018-07-23T20:47:31.084Z,25.00
2018-07-23T20:51:24.940Z,25.00
2018-07-23T20:55:18.886Z,24.90
2018-07-23T20:59:12.871Z,24.90
2018-07-23T21:03:06.985Z,24.90
2018-07-23T21:07:01.615Z,24.80
2018-07-23T21:10:56.336Z,24.80
2018-07-23T21:14:50.685Z,24.70
2018-07-23T21:18:44.618Z,24.60
2018-07-23T21:22:38.837Z,24.60
2018-07-23T21:26:32.834Z,24.60
2018-07-23T21:30:26.917Z,24.60
2018-07-23T21:34:20.888Z,24.50
2018-07-23T21:38:14.818Z,24.50
2018-07-23T21:42:09.078Z,24.40
2018-07-23T21:46:02.939Z,24.40
2018-07-23T21:49:56.995Z,24.30
2018-07-23T21:53:51.131Z,24.20
2018-07-23T21:57:45.207Z,24.10
2018-07-23T22:01:39.348Z,24.00
2018-07-23T22:05:33.276Z,23.90
2018-07-23T22:09:27.578Z,23.80
2018-07-23T22:13:21.717Z,23.80
2018-07-23T22:17:15.655Z,23.80
2018-07-23T22:21:10.199Z,23.70
2018-07-23T22:25:05.067Z,23.70
2018-07-23T22:28:59.278Z,23.70
2018-07-23T22:32:53.353Z,23.60
2018-07-23T22:36:47.410Z,23.70
2018-07-23T22:40:42.103Z,23.80
2018-07-23T22:44:36.715Z,23.70
2018-07-23T22:48:30.931Z,23.60
2018-07-23T22:52:24.931Z,23.50
2018-07-23T22:56:18.806Z,23.50
2018-07-23T23:00:12.729Z,23.40
2018-07-23T23:04:06.971Z,23.30
2018-07-23T23:08:01.036Z,23.30
2018-07-23T23:11:55.097Z,23.20
2018-07-23T23:15:49.080Z,23.20
2018-07-23T23:19:43.045Z,23.20
2018-07-23T23:23:36.995Z,23.10
2018-07-23T23:27:31.051Z,23.10
2018-07-23T23:31:25.071Z,23.00
2018-07-23T23:35:19.039Z,23.00
2018-07-23T23:39:13.365Z,22.90
2018-07-23T23:43:07.466Z,22.80
2018-07-23T23:47:01.519Z,22.80
2018-07-23T23:50:56.194Z,22.70
2018-07-23T23:54:50.131Z,22.70
2018-07-23T23:58:43.995Z,22.60
